createdAt,value
2019-01-18T00:02:07.449Z,2.80
2019-01-18T00:04:36.280Z,3.23
2019-01-18T00:07:05.160Z,2.83
2019-01-18T00:09:33.957Z,3.00
2019-01-18T00:12:02.788Z,2.97
2019-01-18T00:14:31.627Z,2.83
2019-01-18T00:17:00.469Z,2.90
2019-01-18T00:19:29.297Z,2.63
2019-01-18T00:21:58.149Z,2.87
2019-01-18T00:24:26.992Z,3.05
2019-01-18T00:26:55.871Z,2.60
2019-01-18T00:29:29.602Z,2.87
2019-01-18T00:31:54.245Z,2.90
2019-01-18T00:34:23.137Z,2.83
2019-01-18T00:36:51.929Z,3.07
2019-01-18T00:39:20.791Z,2.90
2019-01-18T00:41:49.621Z,3.27
2019-01-18T00:44:19.192Z,2.40
2019-01-18T00:46:48.029Z,2.63
2019-01-18T00:49:16.865Z,2.60
2019-01-18T00:51:45.693Z,2.37
2019-01-18T00:54:14.599Z,2.67
2019-01-18T00:56:43.388Z,2.70
2019-01-18T00:59:12.217Z,2.50
2019-01-18T01:01:41.053Z,2.43
2019-01-18T01:04:10.629Z,2.60
2019-01-18T01:06:39.461Z,2.30
2019-01-18T01:09:08.296Z,2.90
2019-01-18T01:11:37.136Z,2.30
2019-01-18T01:14:05.984Z,2.10
2019-01-18T01:16:34.817Z,2.10
2019-01-18T01:19:03.657Z,2.30
2019-01-18T01:21:32.492Z,2.33
2019-01-18T01:24:01.337Z,2.17
2019-01-18T01:26:30.197Z,2.10
2019-01-18T01:28:59.049Z,2.57
2019-01-18T01:31:27.886Z,2.53
2019-01-18T01:33:56.717Z,2.53
2019-01-18T01:36:25.569Z,2.23
2019-01-18T01:38:54.412Z,2.53
2019-01-18T01:41:23.254Z,2.37
2019-01-18T01:43:52.095Z,2.63
2019-01-18T01:46:20.931Z,2.60
2019-01-18T01:48:49.755Z,2.80
2019-01-18T01:51:19.342Z,2.73
2019-01-18T01:53:48.170Z,2.70
2019-01-18T01:56:17.013Z,2.80
2019-01-18T01:58:45.833Z,2.43
2019-01-18T02:01:15.414Z,2.70
2019-01-18T02:03:44.242Z,2.43
2019-01-18T02:06:13.098Z,2.70
2019-01-18T02:08:41.941Z,2.60
2019-01-18T02:11:10.764Z,2.60
2019-01-18T02:13:40.436Z,2.53
2019-01-18T02:16:09.275Z,2.40
2019-01-18T02:18:38.859Z,2.50
2019-01-18T02:21:07.679Z,2.73
2019-01-18T02:23:37.256Z,2.97
2019-01-18T02:26:06.097Z,3.60
2019-01-18T02:28:34.939Z,3.47
2019-01-18T02:31:03.772Z,3.47
2019-01-18T02:33:32.605Z,3.13
2019-01-18T02:36:01.519Z,3.80
2019-01-18T02:38:30.283Z,3.90
2019-01-18T02:40:59.131Z,3.23
2019-01-18T02:43:27.962Z,4.00
2019-01-18T02:45:56.841Z,4.00
2019-01-18T02:48:25.660Z,3.65
2019-01-18T02:50:54.482Z,3.67
2019-01-18T02:53:23.323Z,3.63
2019-01-18T02:55:52.149Z,2.30
2019-01-18T02:58:20.978Z,3.70
2019-01-18T03:00:49.802Z,4.03
2019-01-18T03:03:18.633Z,4.10
2019-01-18T03:05:47.473Z,3.40
2019-01-18T03:08:16.302Z,4.20
2019-01-18T03:10:45.128Z,3.60
2019-01-18T03:13:13.967Z,3.93
2019-01-18T03:15:42.804Z,3.90
2019-01-18T03:18:11.627Z,4.23
2019-01-18T03:20:40.458Z,3.93
2019-01-18T03:23:09.309Z,4.00
2019-01-18T03:25:38.146Z,3.93
2019-01-18T03:28:06.989Z,3.83
2019-01-18T03:30:35.830Z,3.90
2019-01-18T03:33:04.704Z,3.90
2019-01-18T03:35:33.535Z,3.90
2019-01-18T03:38:02.343Z,4.10
2019-01-18T03:40:31.181Z,4.17
2019-01-18T03:43:00.035Z,4.40
2019-01-18T03:45:28.869Z,3.63
2019-01-18T03:47:57.708Z,3.53
2019-01-18T03:50:27.291Z,3.95
2019-01-18T03:52:56.125Z,3.93
2019-01-18T03:55:25.015Z,3.85
2019-01-18T03:57:54.555Z,4.03
2019-01-18T04:00:26.541Z,4.20
2019-01-18T04:02:54.057Z,3.87
2019-01-18T04:05:22.915Z,4.10
2019-01-18T04:07:52.520Z,3.97
2019-01-18T04:10:22.120Z,3.60
2019-01-18T04:12:51.711Z,3.40
2019-01-18T04:15:20.536Z,4.00
2019-01-18T04:17:49.364Z,4.03
2019-01-18T04:20:18.198Z,4.30
2019-01-18T04:22:47.828Z,3.83
2019-01-18T04:25:16.632Z,4.00
2019-01-18T04:27:45.430Z,4.27
2019-01-18T04:30:14.262Z,4.37
2019-01-18T04:32:43.865Z,3.70
2019-01-18T04:35:12.670Z,4.50
2019-01-18T04:37:41.513Z,4.20
2019-01-18T04:40:11.882Z,4.10
2019-01-18T04:42:40.709Z,4.40
2019-01-18T04:45:09.541Z,4.00
2019-01-18T04:47:38.390Z,4.33
2019-01-18T04:50:08.895Z,5.03
2019-01-18T04:52:37.727Z,4.60
2019-01-18T04:55:06.561Z,4.83
2019-01-18T04:57:35.443Z,4.80
2019-01-18T05:00:05.188Z,4.70
2019-01-18T05:02:34.028Z,4.60
2019-01-18T05:05:03.622Z,4.60
2019-01-18T05:07:32.481Z,4.40
2019-01-18T05:10:01.308Z,4.65
2019-01-18T05:12:30.161Z,4.40
2019-01-18T05:14:58.993Z,4.60
2019-01-18T05:17:28.572Z,5.30
2019-01-18T05:19:57.404Z,4.73
2019-01-18T05:22:26.237Z,4.60
2019-01-18T05:24:55.076Z,4.40
2019-01-18T05:27:23.924Z,4.60
2019-01-18T05:29:52.745Z,4.80
2019-01-18T05:32:22.330Z,4.17
2019-01-18T05:34:51.152Z,4.30
2019-01-18T05:37:19.998Z,4.40
2019-01-18T05:39:48.824Z,4.40
2019-01-18T05:42:18.397Z,4.17
2019-01-18T05:44:47.258Z,4.70
2019-01-18T05:47:16.085Z,4.77
2019-01-18T05:49:44.931Z,4.60
2019-01-18T05:52:13.766Z,5.40
2019-01-18T05:54:42.598Z,4.70
2019-01-18T05:57:11.451Z,4.30
2019-01-18T05:59:41.014Z,4.47
2019-01-18T06:02:09.843Z,5.03
2019-01-18T06:04:38.712Z,4.13
2019-01-18T06:07:08.259Z,4.77
2019-01-18T06:09:37.837Z,4.80
2019-01-18T06:12:07.273Z,4.47
2019-01-18T06:14:36.106Z,4.53
2019-01-18T06:17:04.941Z,4.30
2019-01-18T06:19:33.770Z,4.07
2019-01-18T06:22:02.602Z,4.30
2019-01-18T06:24:31.432Z,4.67
2019-01-18T06:27:00.271Z,4.10
2019-01-18T06:29:29.843Z,4.03
2019-01-18T06:31:58.675Z,4.70
2019-01-18T06:34:27.516Z,4.70
2019-01-18T06:36:56.346Z,4.33
2019-01-18T06:39:25.926Z,4.30
2019-01-18T06:41:54.768Z,5.00
2019-01-18T06:44:24.353Z,4.97
2019-01-18T06:46:53.774Z,4.80
2019-01-18T06:49:22.621Z,5.30
2019-01-18T06:51:51.498Z,4.37
2019-01-18T06:54:20.326Z,5.10
2019-01-18T06:56:49.180Z,4.80
2019-01-18T06:59:18.019Z,4.23
2019-01-18T07:01:47.602Z,4.27
2019-01-18T07:04:16.438Z,4.20
2019-01-18T07:06:45.272Z,4.20
2019-01-18T07:09:14.102Z,4.40
2019-01-18T07:11:42.956Z,5.13
2019-01-18T07:14:11.812Z,4.60
2019-01-18T07:16:40.650Z,4.80
2019-01-18T07:19:10.236Z,4.50
2019-01-18T07:21:39.088Z,5.17
2019-01-18T07:24:07.927Z,4.65
2019-01-18T07:26:37.505Z,4.77
2019-01-18T07:29:06.332Z,4.07
2019-01-18T07:31:35.918Z,4.57
2019-01-18T07:34:04.742Z,5.00
2019-01-18T07:36:33.583Z,4.83
2019-01-18T07:39:02.478Z,4.60
2019-01-18T07:41:31.308Z,3.93
2019-01-18T07:44:00.147Z,4.63
2019-01-18T07:46:28.991Z,95.17
2019-01-18T07:48:57.842Z,96.43
2019-01-18T07:51:26.680Z,130.97
2019-01-18T07:53:55.701Z,73.87
2019-01-18T07:56:24.532Z,18.90
2019-01-18T07:58:53.357Z,6.97
2019-01-18T08:01:22.444Z,6.53
2019-01-18T08:03:51.029Z,13.77
2019-01-18T08:06:19.859Z,8.77
2019-01-18T08:08:48.700Z,14.30
2019-01-18T08:11:17.539Z,16.00
2019-01-18T08:13:46.369Z,17.40
2019-01-18T08:16:15.296Z,13.07
2019-01-18T08:18:44.157Z,9.80
2019-01-18T08:21:13.000Z,7.30
2019-01-18T08:23:41.843Z,7.30
2019-01-18T08:26:10.680Z,6.10
2019-01-18T08:28:39.544Z,6.27
2019-01-18T08:31:08.344Z,6.17
2019-01-18T08:33:37.170Z,6.07
2019-01-18T08:36:06.042Z,6.30
2019-01-18T08:38:34.880Z,5.97
2019-01-18T08:41:03.717Z,5.20
2019-01-18T08:43:32.532Z,6.57
2019-01-18T08:46:00.602Z,6.50
2019-01-18T08:48:30.180Z,6.23
2019-01-18T08:50:59.016Z,6.90
2019-01-18T08:53:27.856Z,6.73
2019-01-18T08:55:56.676Z,5.77
2019-01-18T08:58:26.256Z,7.10
2019-01-18T09:00:55.106Z,6.50
2019-01-18T09:03:23.945Z,8.48
2019-01-18T09:05:52.784Z,6.93
2019-01-18T09:08:21.623Z,7.68
2019-01-18T09:10:50.456Z,6.47
2019-01-18T09:13:19.288Z,6.03
2019-01-18T09:15:48.151Z,6.20
2019-01-18T09:18:16.980Z,6.62
2019-01-18T09:20:46.562Z,5.53
2019-01-18T09:23:15.410Z,6.97
2019-01-18T09:25:44.259Z,7.27
2019-01-18T09:28:13.846Z,7.60
2019-01-18T09:30:42.678Z,8.70
2019-01-18T09:33:11.522Z,7.03
2019-01-18T09:35:40.353Z,7.50
2019-01-18T09:38:09.196Z,7.50
2019-01-18T09:40:38.046Z,7.33
2019-01-18T09:43:06.897Z,7.57
2019-01-18T09:45:35.742Z,6.60
2019-01-18T09:48:04.578Z,5.80
2019-01-18T09:50:34.160Z,7.03
2019-01-18T09:53:02.987Z,6.80
2019-01-18T09:55:31.830Z,7.10
2019-01-18T09:58:00.667Z,7.50
2019-01-18T10:00:32.115Z,5.20
2019-01-18T10:03:00.913Z,4.70
2019-01-18T10:05:29.772Z,4.57
2019-01-18T10:07:58.606Z,4.57
2019-01-18T10:10:27.450Z,4.67
2019-01-18T10:12:56.306Z,4.40
2019-01-18T10:15:26.947Z,4.43
2019-01-18T10:18:00.669Z,4.70
2019-01-18T10:20:24.634Z,4.23
2019-01-18T10:22:53.478Z,4.27
2019-01-18T10:25:22.317Z,5.63
2019-01-18T10:27:51.160Z,5.87
2019-01-18T10:30:21.837Z,15.73
2019-01-18T10:32:50.692Z,6.70
2019-01-18T10:35:19.538Z,6.40
2019-01-18T10:37:49.117Z,6.13
2019-01-18T10:40:17.953Z,6.30
2019-01-18T10:42:46.798Z,5.47
2019-01-18T10:45:15.632Z,4.90
2019-01-18T10:47:44.470Z,5.00
2019-01-18T10:50:14.230Z,3.97
2019-01-18T10:52:43.070Z,4.00
2019-01-18T10:55:11.901Z,3.50
2019-01-18T10:57:41.509Z,3.67
2019-01-18T11:00:14.383Z,3.10
2019-01-18T11:02:43.172Z,3.40
2019-01-18T11:05:12.028Z,4.20
2019-01-18T11:07:40.882Z,3.40
2019-01-18T11:10:10.676Z,3.60
2019-01-18T11:12:40.272Z,3.73
2019-01-18T11:15:14.992Z,3.43
2019-01-18T11:17:43.829Z,3.80
2019-01-18T11:20:13.513Z,4.57
2019-01-18T11:22:42.360Z,4.43
2019-01-18T11:25:11.222Z,5.00
2019-01-18T11:27:40.070Z,5.20
2019-01-18T11:30:08.923Z,4.63
2019-01-18T11:32:37.801Z,4.27
2019-01-18T11:35:06.620Z,4.50
2019-01-18T11:37:36.208Z,4.57
2019-01-18T11:40:11.581Z,4.22
2019-01-18T11:42:40.418Z,3.65
2019-01-18T11:45:09.258Z,3.37
2019-01-18T11:47:38.848Z,3.47
2019-01-18T11:50:09.928Z,3.60
2019-01-18T11:52:38.792Z,3.83
2019-01-18T11:55:08.385Z,4.10
2019-01-18T11:57:37.284Z,5.28
2019-01-18T12:00:09.709Z,5.83
2019-01-18T12:02:38.582Z,5.30
2019-01-18T12:05:07.422Z,5.53
2019-01-18T12:07:36.275Z,6.47
2019-01-18T12:10:06.083Z,6.95
2019-01-18T12:12:35.641Z,5.73
2019-01-18T12:15:04.496Z,5.17
2019-01-18T12:17:33.343Z,6.30
2019-01-18T12:20:02.175Z,6.30
2019-01-18T12:22:31.009Z,6.47
2019-01-18T12:24:59.859Z,6.57
2019-01-18T12:27:28.686Z,5.97
2019-01-18T12:29:58.269Z,6.70
2019-01-18T12:32:28.853Z,5.50
2019-01-18T12:34:56.680Z,5.20
2019-01-18T12:37:25.521Z,6.10
2019-01-18T12:39:54.363Z,6.30
2019-01-18T12:42:23.950Z,5.80
2019-01-18T12:44:53.388Z,5.90
2019-01-18T12:47:22.225Z,6.03
2019-01-18T12:49:51.059Z,6.13
2019-01-18T12:52:19.900Z,6.17
2019-01-18T12:54:48.741Z,6.13
2019-01-18T12:57:17.594Z,6.30
2019-01-18T12:59:46.432Z,5.90
2019-01-18T13:02:15.283Z,6.60
2019-01-18T13:04:44.860Z,5.87
2019-01-18T13:07:13.700Z,6.07
2019-01-18T13:09:42.535Z,5.57
2019-01-18T13:12:11.386Z,6.20
2019-01-18T13:14:40.228Z,6.43
2019-01-18T13:17:09.069Z,5.93
2019-01-18T13:19:37.910Z,5.57
2019-01-18T13:22:06.747Z,5.63
2019-01-18T13:24:35.600Z,5.67
2019-01-18T13:27:04.443Z,5.70
2019-01-18T13:29:33.291Z,6.57
2019-01-18T13:32:02.874Z,6.00
2019-01-18T13:34:31.716Z,5.50
2019-01-18T13:37:00.555Z,5.70
2019-01-18T13:39:29.396Z,5.73
2019-01-18T13:41:58.243Z,6.03
2019-01-18T13:44:27.853Z,6.03
2019-01-18T13:46:56.696Z,5.27
2019-01-18T13:49:25.527Z,5.23
2019-01-18T13:51:54.376Z,5.30
2019-01-18T13:54:23.208Z,6.00
2019-01-18T13:56:52.051Z,5.87
2019-01-18T13:59:20.928Z,5.70
2019-01-18T14:01:49.745Z,5.40
2019-01-18T14:04:18.580Z,5.50
2019-01-18T14:06:47.424Z,5.30
2019-01-18T14:09:16.243Z,5.63
2019-01-18T14:11:45.122Z,5.40
2019-01-18T14:14:13.924Z,5.70
2019-01-18T14:16:43.508Z,5.30
2019-01-18T14:19:12.339Z,5.47
2019-01-18T14:21:41.182Z,4.80
2019-01-18T14:24:10.032Z,4.27
2019-01-18T14:26:38.872Z,4.70
2019-01-18T14:29:07.738Z,4.43
2019-01-18T14:31:36.602Z,4.90
2019-01-18T14:34:05.439Z,4.50
2019-01-18T14:36:34.287Z,4.77
2019-01-18T14:39:03.116Z,5.00
2019-01-18T14:41:31.971Z,4.03
2019-01-18T14:44:00.802Z,4.43
2019-01-18T14:46:29.634Z,3.80
2019-01-18T14:48:58.472Z,4.07
2019-01-18T14:51:27.903Z,3.70
2019-01-18T14:53:56.739Z,4.20
2019-01-18T14:56:25.574Z,4.20
2019-01-18T14:58:54.402Z,3.80
2019-01-18T15:01:23.232Z,3.87
2019-01-18T15:03:54.159Z,4.40
2019-01-18T15:06:20.915Z,3.43
2019-01-18T15:08:50.342Z,3.37
2019-01-18T15:11:19.204Z,4.43
2019-01-18T15:13:48.042Z,4.40
2019-01-18T15:16:16.875Z,4.03
2019-01-18T15:18:45.736Z,4.10
2019-01-18T15:21:14.577Z,3.60
2019-01-18T15:23:43.420Z,4.43
2019-01-18T15:26:18.297Z,4.50
2019-01-18T15:28:41.110Z,4.30
2019-01-18T15:31:09.947Z,4.20
2019-01-18T15:33:38.802Z,5.00
2019-01-18T15:36:07.671Z,4.63
2019-01-18T15:38:36.506Z,4.93
2019-01-18T15:41:05.345Z,4.37
2019-01-18T15:43:34.194Z,4.20
2019-01-18T15:46:03.054Z,4.40
2019-01-18T15:48:31.937Z,5.17
2019-01-18T15:51:00.801Z,5.35
2019-01-18T15:53:29.631Z,5.30
2019-01-18T15:55:58.517Z,4.93
2019-01-18T15:58:27.468Z,8.85
2019-01-18T16:00:56.279Z,7.83
2019-01-18T16:03:25.106Z,7.63
2019-01-18T16:05:53.952Z,7.40
2019-01-18T16:08:32.599Z,7.20
2019-01-18T16:11:02.186Z,7.13
2019-01-18T16:13:31.023Z,6.80
2019-01-18T16:15:59.906Z,7.90
2019-01-18T16:18:28.729Z,9.67
2019-01-18T16:20:57.572Z,11.90
2019-01-18T16:23:26.439Z,13.67
2019-01-18T16:25:55.300Z,16.43
2019-01-18T16:28:24.156Z,18.67
2019-01-18T16:30:53.018Z,13.87
2019-01-18T16:33:23.487Z,15.23
2019-01-18T16:35:50.735Z,19.87
2019-01-18T16:38:19.581Z,16.80
2019-01-18T16:40:49.204Z,18.57
2019-01-18T16:43:20.031Z,18.30
2019-01-18T16:45:48.809Z,14.70
2019-01-18T16:48:17.666Z,13.13
2019-01-18T16:50:46.508Z,13.20
2019-01-18T16:53:15.389Z,12.40
2019-01-18T16:55:44.979Z,12.07
2019-01-18T16:58:13.829Z,13.07
2019-01-18T17:00:48.450Z,12.63
2019-01-18T17:03:17.302Z,13.23
2019-01-18T17:05:46.179Z,12.60
2019-01-18T17:08:15.651Z,13.03
2019-01-18T17:10:44.489Z,14.40
2019-01-18T17:13:13.383Z,16.40
2019-01-18T17:15:41.450Z,18.10
2019-01-18T17:18:10.302Z,18.13
2019-01-18T17:20:39.167Z,19.23
2019-01-18T17:23:08.009Z,16.57
2019-01-18T17:25:36.862Z,13.73
2019-01-18T17:28:05.694Z,12.53
2019-01-18T17:30:34.553Z,12.23
2019-01-18T17:33:03.405Z,11.70
2019-01-18T17:38:20.605Z,11.27
2019-01-18T17:40:50.877Z,9.37
2019-01-18T17:43:22.563Z,9.77
2019-01-18T17:48:37.647Z,11.90
2019-01-18T17:51:16.328Z,16.48
2019-01-18T17:53:48.117Z,11.83
2019-01-18T17:59:05.837Z,12.30
2019-01-18T18:01:40.591Z,12.32
2019-01-18T18:04:22.806Z,11.20
2019-01-18T18:09:31.855Z,10.25
2019-01-18T18:12:02.590Z,9.67
2019-01-18T18:17:25.207Z,11.18
2019-01-18T18:20:06.602Z,10.50
2019-01-18T18:22:51.910Z,8.13
2019-01-18T18:25:38.597Z,8.20
2019-01-18T18:28:10.293Z,8.60
2019-01-18T18:30:41.928Z,8.77
2019-01-18T18:33:10.780Z,9.17
2019-01-18T18:35:43.781Z,9.68
2019-01-18T18:38:18.295Z,9.10
2019-01-18T18:43:28.064Z,10.10
2019-01-18T18:48:43.503Z,10.57
2019-01-18T18:51:19.760Z,8.80
2019-01-18T18:53:55.413Z,8.37
2019-01-18T18:59:09.146Z,8.40
2019-01-18T19:01:46.387Z,8.13
2019-01-18T19:04:16.887Z,8.43
2019-01-18T19:07:02.723Z,9.67
2019-01-18T19:09:33.317Z,11.33
2019-01-18T19:12:19.530Z,9.87
2019-01-18T19:14:51.095Z,9.60
2019-01-18T19:17:21.757Z,7.83
2019-01-18T19:22:34.845Z,12.32
2019-01-18T19:25:14.107Z,11.80
2019-01-18T19:27:48.312Z,13.35
2019-01-18T19:30:24.741Z,12.20
2019-01-18T19:35:38.566Z,12.85
2019-01-18T19:38:20.576Z,12.07
2019-01-18T19:40:53.986Z,11.90
2019-01-18T19:43:30.221Z,11.93
2019-01-18T19:46:08.358Z,11.70
2019-01-18T19:48:42.763Z,11.37
2019-01-18T19:53:55.752Z,12.30
2019-01-18T19:56:26.394Z,13.00
2019-01-18T20:04:03.344Z,10.73
2019-01-18T20:09:27.168Z,9.80
2019-01-18T20:11:59.820Z,10.73
2019-01-18T20:14:31.629Z,10.73
2019-01-18T20:17:09.278Z,10.70
2019-01-18T20:22:32.940Z,11.73
2019-01-18T20:25:11.101Z,11.10
2019-01-18T20:30:31.241Z,11.27
2019-01-18T20:33:02.550Z,10.67
2019-01-18T20:38:25.513Z,12.23
2019-01-18T20:41:01.710Z,11.87
2019-01-18T20:43:32.387Z,12.75
2019-01-18T20:46:08.853Z,10.97
2019-01-18T20:51:23.435Z,11.70
2019-01-18T20:53:54.953Z,11.40
2019-01-18T20:59:04.002Z,11.60
2019-01-18T21:01:38.722Z,10.77
2019-01-18T21:04:10.557Z,11.15
2019-01-18T21:06:42.928Z,10.77
2019-01-18T21:09:16.716Z,10.33
2019-01-18T21:17:15.125Z,11.55
2019-01-18T21:19:45.757Z,11.10
2019-01-18T21:22:23.887Z,10.73
2019-01-18T21:27:52.612Z,11.07
2019-01-18T21:33:03.066Z,9.82
2019-01-18T21:38:25.181Z,9.68
2019-01-18T21:40:54.828Z,12.05
2019-01-18T21:43:34.181Z,10.90
2019-01-18T21:46:12.887Z,9.80
2019-01-18T21:51:35.175Z,10.93
2019-01-18T21:54:08.736Z,10.37
2019-01-18T21:56:43.484Z,9.43
2019-01-18T21:59:20.727Z,11.30
2019-01-18T22:01:52.818Z,11.53
2019-01-18T22:04:28.937Z,13.20
2019-01-18T22:09:46.705Z,12.10
2019-01-18T22:12:17.203Z,10.73
2019-01-18T22:14:57.591Z,11.20
2019-01-18T22:17:31.675Z,10.90
2019-01-18T22:20:10.707Z,10.40
2019-01-18T22:22:44.292Z,9.50
2019-01-18T22:28:11.691Z,11.25
2019-01-18T22:33:30.533Z,10.45
2019-01-18T22:36:04.966Z,9.73
2019-01-18T22:38:44.121Z,9.27
2019-01-18T22:41:17.745Z,8.83
2019-01-18T22:43:51.515Z,10.23
2019-01-18T22:46:33.163Z,9.83
2019-01-18T22:49:03.761Z,10.63
2019-01-18T22:54:26.535Z,12.30
2019-01-18T22:59:40.576Z,11.82
2019-01-18T23:02:21.033Z,11.03
2019-01-18T23:07:40.566Z,14.25
2019-01-18T23:10:19.815Z,14.00
2019-01-18T23:12:52.940Z,13.68
2019-01-18T23:15:30.303Z,11.73
2019-01-18T23:18:02.401Z,10.03
2019-01-18T23:23:26.143Z,9.80
2019-01-18T23:28:41.157Z,9.20
2019-01-18T23:31:10.927Z,10.60
2019-01-18T23:33:44.181Z,10.30
2019-01-18T23:36:14.513Z,9.33
2019-01-18T23:38:50.939Z,9.47
2019-01-18T23:41:23.419Z,8.37
2019-01-18T23:43:55.509Z,9.03
2019-01-18T23:49:13.162Z,10.10
2019-01-18T23:54:30.922Z,10.30
2019-01-18T23:57:06.551Z,9.03
2019-01-18T23:59:35.390Z,9.40
